createdAt,value
2023-05-10T00:00:43.432Z,99.90
2023-05-10T00:03:10.438Z,99.90
2023-05-10T00:05:37.452Z,99.90
2023-05-10T00:08:04.535Z,99.90
2023-05-10T00:10:31.766Z,99.90
2023-05-10T00:12:58.724Z,99.90
2023-05-10T00:15:25.788Z,99.90
2023-05-10T00:17:52.756Z,99.90
2023-05-10T00:20:19.797Z,99.90
2023-05-10T00:22:46.860Z,99.90
2023-05-10T00:25:13.829Z,99.90
2023-05-10T00:27:40.749Z,99.90
2023-05-10T00:30:08.329Z,99.90
2023-05-10T00:32:35.396Z,99.90
2023-05-10T00:35:02.428Z,99.90
2023-05-10T00:37:29.394Z,99.90
2023-05-10T00:39:56.460Z,99.90
2023-05-10T00:42:23.588Z,99.90
2023-05-10T00:44:50.511Z,99.90
2023-05-10T00:47:18.045Z,99.90
2023-05-10T00:49:45.520Z,99.90
2023-05-10T00:52:12.553Z,99.90
2023-05-10T00:54:39.664Z,99.90
2023-05-10T00:57:06.804Z,99.90
2023-05-10T00:59:34.030Z,99.90
2023-05-10T01:02:01.274Z,99.90
2023-05-10T01:04:29.452Z,99.90
2023-05-10T01:06:56.417Z,99.90
2023-05-10T01:09:23.994Z,99.90
2023-05-10T01:11:51.428Z,99.90
2023-05-10T01:14:20.890Z,99.90
2023-05-10T01:16:50.008Z,99.90
2023-05-10T01:19:24.511Z,99.90
2023-05-10T01:22:08.339Z,99.90
2023-05-10T01:24:47.083Z,99.90
2023-05-10T01:27:21.119Z,99.90
2023-05-10T01:30:16.029Z,99.90
2023-05-10T01:32:51.496Z,99.90
2023-05-10T01:35:49.656Z,99.90
2023-05-10T01:38:26.268Z,99.90
2023-05-10T01:41:04.823Z,99.90
2023-05-10T01:43:37.620Z,99.90
2023-05-10T01:46:12.054Z,99.90
2023-05-10T01:48:48.913Z,99.90
2023-05-10T01:51:26.296Z,99.90
2023-05-10T01:53:57.625Z,99.90
2023-05-10T01:56:28.983Z,99.90
2023-05-10T01:58:57.460Z,99.90
2023-05-10T02:01:27.217Z,99.90
2023-05-10T02:03:56.619Z,99.90
2023-05-10T02:06:25.159Z,99.90
2023-05-10T02:08:53.627Z,99.90
2023-05-10T02:11:22.503Z,99.90
2023-05-10T02:13:51.527Z,99.90
2023-05-10T02:16:23.392Z,99.90
2023-05-10T02:18:53.344Z,99.90
2023-05-10T02:21:22.699Z,99.90
2023-05-10T02:23:53.030Z,99.90
2023-05-10T02:26:28.798Z,99.90
2023-05-10T02:28:58.232Z,99.90
2023-05-10T02:31:26.121Z,99.90
2023-05-10T02:33:54.515Z,99.90
2023-05-10T02:36:23.673Z,99.90
2023-05-10T02:38:52.833Z,99.90
2023-05-10T02:41:23.680Z,99.90
2023-05-10T02:43:56.790Z,99.90
2023-05-10T02:46:24.232Z,99.90
2023-05-10T02:48:51.224Z,99.90
2023-05-10T02:51:20.183Z,99.90
2023-05-10T02:53:48.145Z,99.90
2023-05-10T02:56:24.599Z,99.90
2023-05-10T02:58:51.779Z,99.90
2023-05-10T03:01:18.824Z,99.90
2023-05-10T03:03:45.990Z,99.90
2023-05-10T03:06:12.892Z,99.90
2023-05-10T03:08:40.424Z,99.90
2023-05-10T03:11:22.822Z,99.90
2023-05-10T03:14:08.443Z,99.90
2023-05-10T03:16:57.855Z,99.90
2023-05-10T03:19:54.177Z,99.90
2023-05-10T03:22:31.006Z,99.90
2023-05-10T03:24:59.005Z,99.90
2023-05-10T03:27:27.943Z,99.90
2023-05-10T03:29:57.069Z,99.90
2023-05-10T03:32:24.366Z,99.90
2023-05-10T03:34:51.393Z,99.90
2023-05-10T03:37:18.319Z,99.90
2023-05-10T03:39:45.674Z,99.90
2023-05-10T03:42:13.082Z,99.90
2023-05-10T03:44:40.818Z,99.90
2023-05-10T03:47:07.949Z,99.90
2023-05-10T03:49:35.007Z,99.90
2023-05-10T03:52:02.107Z,99.90
2023-05-10T03:54:29.025Z,99.90
2023-05-10T03:56:56.110Z,99.90
2023-05-10T03:59:23.035Z,99.90
2023-05-10T04:01:50.007Z,99.90
2023-05-10T04:04:19.666Z,99.90
2023-05-10T04:06:46.897Z,99.90
2023-05-10T04:09:13.904Z,99.90
2023-05-10T04:11:40.853Z,99.90
2023-05-10T04:14:07.782Z,99.90
2023-05-10T04:16:34.759Z,99.90
2023-05-10T04:19:01.869Z,99.90
2023-05-10T04:21:28.870Z,99.90
2023-05-10T04:23:55.830Z,99.90
2023-05-10T04:26:23.089Z,99.90
2023-05-10T04:28:50.006Z,99.90
2023-05-10T04:31:17.030Z,99.90
2023-05-10T04:33:43.976Z,99.90
2023-05-10T04:36:11.104Z,99.90
2023-05-10T04:38:38.146Z,99.90
2023-05-10T04:41:09.594Z,99.90
2023-05-10T04:43:37.426Z,99.90
2023-05-10T04:46:05.757Z,99.90
2023-05-10T04:48:32.811Z,99.90
2023-05-10T04:50:59.816Z,99.90
2023-05-10T04:53:26.827Z,99.90
2023-05-10T04:55:53.795Z,99.90
2023-05-10T04:58:20.789Z,99.90
2023-05-10T05:00:47.827Z,99.90
2023-05-10T05:03:14.936Z,99.90
2023-05-10T05:05:41.948Z,99.90
2023-05-10T05:08:08.814Z,99.90
2023-05-10T05:10:35.951Z,99.90
2023-05-10T05:13:02.947Z,99.90
2023-05-10T05:15:30.979Z,99.90
2023-05-10T05:17:57.939Z,99.90
2023-05-10T05:20:24.927Z,99.90
2023-05-10T05:22:51.864Z,99.90
2023-05-10T05:25:18.779Z,99.90
2023-05-10T05:27:45.734Z,99.90
2023-05-10T05:30:13.565Z,99.90
2023-05-10T05:32:40.745Z,99.90
2023-05-10T05:35:08.115Z,99.90
2023-05-10T05:37:35.066Z,99.90
2023-05-10T05:40:02.788Z,99.90
2023-05-10T05:42:29.865Z,99.90
2023-05-10T05:44:56.814Z,99.90
2023-05-10T05:47:23.856Z,99.90
2023-05-10T05:49:50.911Z,99.90
2023-05-10T05:52:18.691Z,99.90
2023-05-10T05:54:45.641Z,99.90
2023-05-10T05:57:12.712Z,99.90
2023-05-10T05:59:44.755Z,99.90
2023-05-10T06:02:11.922Z,99.90
2023-05-10T06:04:39.221Z,99.90
2023-05-10T06:07:06.283Z,99.90
2023-05-10T06:09:33.186Z,99.90
2023-05-10T06:12:00.173Z,99.90
2023-05-10T06:14:27.172Z,99.90
2023-05-10T06:16:54.144Z,99.90
2023-05-10T06:19:21.114Z,99.90
2023-05-10T06:21:48.073Z,99.90
2023-05-10T06:24:15.606Z,99.90
2023-05-10T06:26:42.526Z,99.90
2023-05-10T06:29:09.599Z,99.90
2023-05-10T06:31:36.607Z,99.90
2023-05-10T06:34:03.861Z,99.90
2023-05-10T06:36:30.810Z,99.90
2023-05-10T06:38:58.082Z,99.90
2023-05-10T06:41:25.157Z,99.90
2023-05-10T06:43:52.346Z,99.90
2023-05-10T06:46:19.294Z,99.90
2023-05-10T06:48:46.987Z,99.90
2023-05-10T06:51:13.938Z,99.90
2023-05-10T06:53:40.923Z,99.90
2023-05-10T06:56:08.133Z,99.90
2023-05-10T06:58:35.024Z,99.90
2023-05-10T07:01:06.405Z,99.90
2023-05-10T07:03:33.498Z,99.90
2023-05-10T07:06:04.876Z,99.90
2023-05-10T07:08:35.331Z,99.90
2023-05-10T07:11:08.387Z,99.90
2023-05-10T07:13:35.995Z,99.90
2023-05-10T07:16:03.901Z,99.90
2023-05-10T07:18:30.992Z,99.90
2023-05-10T07:20:58.789Z,99.90
2023-05-10T07:23:26.015Z,99.90
2023-05-10T07:25:53.325Z,99.90
2023-05-10T07:28:20.992Z,99.90
2023-05-10T07:30:49.051Z,99.90
2023-05-10T07:33:16.843Z,99.90
2023-05-10T07:35:44.457Z,99.90
2023-05-10T07:38:14.391Z,99.90
2023-05-10T07:40:41.412Z,99.90
2023-05-10T07:43:08.360Z,99.90
2023-05-10T07:45:35.567Z,99.90
2023-05-10T07:48:02.969Z,99.90
2023-05-10T07:50:29.996Z,99.90
2023-05-10T07:52:56.957Z,99.90
2023-05-10T07:55:23.902Z,99.90
2023-05-10T07:57:50.928Z,99.90
2023-05-10T08:00:19.684Z,99.90
2023-05-10T08:02:47.051Z,99.90
2023-05-10T08:05:14.525Z,99.90
2023-05-10T08:07:42.303Z,99.90
2023-05-10T08:10:09.824Z,99.90
2023-05-10T08:12:36.760Z,99.90
2023-05-10T08:15:04.321Z,99.90
2023-05-10T08:17:31.427Z,99.90
2023-05-10T08:19:58.433Z,99.90
2023-05-10T08:22:25.472Z,99.90
2023-05-10T08:24:53.156Z,99.90
2023-05-10T08:27:20.077Z,99.90
2023-05-10T08:29:50.518Z,99.90
2023-05-10T08:32:18.195Z,99.90
2023-05-10T08:34:45.108Z,99.90
2023-05-10T08:37:14.564Z,99.90
2023-05-10T08:39:42.009Z,99.90
2023-05-10T08:42:10.200Z,99.90
2023-05-10T08:44:37.869Z,99.90
2023-05-10T08:47:08.561Z,99.90
2023-05-10T08:49:36.074Z,99.90
2023-05-10T08:52:06.346Z,99.90
2023-05-10T08:54:34.434Z,99.90
2023-05-10T08:57:01.739Z,99.90
2023-05-10T08:59:28.986Z,99.90
2023-05-10T09:01:59.922Z,99.90
2023-05-10T09:04:27.382Z,99.90
2023-05-10T09:06:54.806Z,99.90
2023-05-10T09:09:23.944Z,99.90
2023-05-10T09:11:51.072Z,99.90
2023-05-10T09:14:18.660Z,99.90
2023-05-10T09:16:45.800Z,99.90
2023-05-10T09:19:12.990Z,99.90
2023-05-10T09:21:39.892Z,99.90
2023-05-10T09:24:08.145Z,99.90
2023-05-10T09:26:36.691Z,99.90
2023-05-10T09:29:04.375Z,99.90
2023-05-10T09:31:51.941Z,99.90
2023-05-10T09:34:20.330Z,99.90
2023-05-10T09:36:55.301Z,99.90
2023-05-10T09:39:31.069Z,99.90
2023-05-10T09:41:59.729Z,99.90
2023-05-10T09:44:27.511Z,99.90
2023-05-10T09:46:54.430Z,99.90
2023-05-10T09:49:23.104Z,99.90
2023-05-10T09:52:02.239Z,99.90
2023-05-10T09:54:29.480Z,99.90
2023-05-10T09:56:56.548Z,99.90
2023-05-10T09:59:27.198Z,99.90
2023-05-10T10:01:58.772Z,99.90
2023-05-10T10:04:26.031Z,99.90
2023-05-10T10:07:04.507Z,99.90
2023-05-10T10:09:32.475Z,99.90
2023-05-10T10:12:01.094Z,99.90
2023-05-10T10:14:28.400Z,99.70
2023-05-10T10:17:05.702Z,99.50
2023-05-10T10:19:37.912Z,99.70
2023-05-10T10:22:05.626Z,99.60
2023-05-10T10:24:32.765Z,98.80
2023-05-10T10:27:15.967Z,99.40
2023-05-10T10:30:11.529Z,99.40
2023-05-10T10:32:38.393Z,98.90
2023-05-10T10:35:05.917Z,98.90
2023-05-10T10:37:51.237Z,99.20
2023-05-10T10:40:35.186Z,98.30
2023-05-10T10:43:28.042Z,98.80
2023-05-10T10:46:14.508Z,97.70
2023-05-10T10:48:42.844Z,98.30
2023-05-10T10:51:12.238Z,97.50
2023-05-10T10:53:40.911Z,96.10
2023-05-10T10:56:14.607Z,95.40
2023-05-10T10:58:42.348Z,95.20
2023-05-10T11:01:19.184Z,96.40
2023-05-10T11:04:01.667Z,96.00
2023-05-10T11:06:33.422Z,94.90
2023-05-10T11:09:06.719Z,95.60
2023-05-10T11:11:35.157Z,93.80
2023-05-10T11:14:06.937Z,93.90
2023-05-10T11:16:46.207Z,93.90
2023-05-10T11:19:15.163Z,92.60
2023-05-10T11:22:12.285Z,90.90
2023-05-10T11:24:39.233Z,91.10
2023-05-10T11:27:07.178Z,90.60
2023-05-10T11:29:34.097Z,90.90
2023-05-10T11:32:01.354Z,91.20
2023-05-10T11:34:34.779Z,90.90
2023-05-10T11:37:02.576Z,89.00
2023-05-10T11:39:32.002Z,87.80
2023-05-10T11:41:59.403Z,88.20
2023-05-10T11:44:33.434Z,88.60
2023-05-10T11:47:04.305Z,86.10
2023-05-10T11:49:31.635Z,85.90
2023-05-10T11:52:06.546Z,83.40
2023-05-10T11:54:35.834Z,86.20
2023-05-10T11:57:02.872Z,87.70
2023-05-10T11:59:30.070Z,82.70
2023-05-10T12:01:57.357Z,81.20
2023-05-10T12:04:24.580Z,81.40
2023-05-10T12:06:51.576Z,80.20
2023-05-10T12:09:23.024Z,77.10
2023-05-10T12:11:58.823Z,76.50
2023-05-10T12:14:25.781Z,72.00
2023-05-10T12:16:52.739Z,74.80
2023-05-10T12:19:22.141Z,72.30
2023-05-10T12:21:49.808Z,71.70
2023-05-10T12:24:20.287Z,70.30
2023-05-10T12:29:31.832Z,70.60
2023-05-10T12:32:00.867Z,69.70
2023-05-10T12:34:36.009Z,70.10
2023-05-10T12:37:04.061Z,68.60
2023-05-10T12:40:00.662Z,69.40
2023-05-10T12:42:27.587Z,68.40
2023-05-10T12:44:58.333Z,66.70
2023-05-10T12:47:25.293Z,67.20
2023-05-10T12:49:52.362Z,68.20
2023-05-10T12:52:19.325Z,69.70
2023-05-10T12:54:46.712Z,71.00
2023-05-10T12:57:14.737Z,69.40
2023-05-10T12:59:41.787Z,70.00
2023-05-10T13:02:09.301Z,67.10
2023-05-10T13:04:38.577Z,69.20
2023-05-10T13:07:05.616Z,67.60
2023-05-10T13:09:32.481Z,68.50
2023-05-10T13:11:59.453Z,68.70
2023-05-10T13:14:26.970Z,69.30
2023-05-10T13:16:53.983Z,68.30
2023-05-10T13:19:21.323Z,69.50
2023-05-10T13:21:48.409Z,69.00
2023-05-10T13:24:15.382Z,68.10
2023-05-10T13:26:42.448Z,68.40
2023-05-10T13:29:09.880Z,68.10
2023-05-10T13:31:37.042Z,68.80
2023-05-10T13:34:04.360Z,67.60
2023-05-10T13:36:31.440Z,68.10
2023-05-10T13:38:58.448Z,68.40
2023-05-10T13:41:26.092Z,68.80
2023-05-10T13:43:53.001Z,68.30
2023-05-10T13:46:20.420Z,68.20
2023-05-10T13:48:47.347Z,67.90
2023-05-10T13:51:14.294Z,66.90
2023-05-10T13:53:41.290Z,68.20
2023-05-10T13:56:08.213Z,67.90
2023-05-10T13:58:36.373Z,68.30
2023-05-10T14:01:03.342Z,67.90
2023-05-10T14:03:30.386Z,65.80
2023-05-10T14:05:57.400Z,65.40
2023-05-10T14:08:24.261Z,66.30
2023-05-10T14:10:51.765Z,68.00
2023-05-10T14:13:18.718Z,66.30
2023-05-10T14:15:45.720Z,66.80
2023-05-10T14:18:12.746Z,67.00
2023-05-10T14:20:39.769Z,65.40
2023-05-10T14:23:06.835Z,66.70
2023-05-10T14:25:34.218Z,66.40
2023-05-10T14:28:01.172Z,66.40
2023-05-10T14:30:28.142Z,66.00
2023-05-10T14:32:55.421Z,67.00
2023-05-10T14:35:22.572Z,66.40
2023-05-10T14:37:49.676Z,65.30
2023-05-10T14:40:18.199Z,66.00
2023-05-10T14:42:45.183Z,66.30
2023-05-10T14:45:13.082Z,66.00
2023-05-10T14:47:40.016Z,65.70
2023-05-10T14:50:07.474Z,66.60
2023-05-10T14:52:34.561Z,65.50
2023-05-10T14:55:02.347Z,65.80
2023-05-10T14:57:30.737Z,65.90
2023-05-10T14:59:58.075Z,64.20
2023-05-10T15:02:26.165Z,65.10
2023-05-10T15:04:53.708Z,64.50
2023-05-10T15:07:21.162Z,65.00
2023-05-10T15:09:53.980Z,65.40
2023-05-10T15:12:21.419Z,64.30
2023-05-10T15:14:48.460Z,65.40
2023-05-10T15:17:15.425Z,65.50
2023-05-10T15:19:43.223Z,63.50
2023-05-10T15:22:10.241Z,64.70
2023-05-10T15:24:37.230Z,65.70
2023-05-10T15:27:04.242Z,64.40
2023-05-10T15:29:32.471Z,65.10
2023-05-10T15:31:59.435Z,65.70
2023-05-10T15:34:26.351Z,66.30
2023-05-10T15:36:53.476Z,66.90
2023-05-10T15:39:20.461Z,66.60
2023-05-10T15:41:48.152Z,67.10
2023-05-10T15:44:15.153Z,65.80
2023-05-10T15:46:42.086Z,66.30
2023-05-10T15:49:09.036Z,65.90
2023-05-10T15:51:36.761Z,66.40
2023-05-10T15:54:07.587Z,66.70
2023-05-10T15:56:35.726Z,66.40
2023-05-10T15:59:03.742Z,66.80
2023-05-10T16:01:32.533Z,66.10
2023-05-10T16:04:00.179Z,66.30
2023-05-10T16:06:27.296Z,67.40
2023-05-10T16:08:54.687Z,68.10
2023-05-10T16:11:23.065Z,67.50
2023-05-10T16:13:50.119Z,67.40
2023-05-10T16:16:17.169Z,67.40
2023-05-10T16:18:44.309Z,68.00
2023-05-10T16:21:11.307Z,68.40
2023-05-10T16:23:38.321Z,67.50
2023-05-10T16:26:05.244Z,67.80
2023-05-10T16:28:32.414Z,68.00
2023-05-10T16:30:59.487Z,67.90
2023-05-10T16:33:26.885Z,68.20
2023-05-10T16:35:53.828Z,68.70
2023-05-10T16:38:21.787Z,69.00
2023-05-10T16:40:48.821Z,68.50
2023-05-10T16:43:15.847Z,68.10
2023-05-10T16:45:42.802Z,68.00
2023-05-10T16:48:09.807Z,68.10
2023-05-10T16:50:36.772Z,68.50
2023-05-10T16:53:04.269Z,67.70
2023-05-10T16:55:31.176Z,67.20
2023-05-10T16:58:00.461Z,67.80
2023-05-10T17:00:27.644Z,68.50
2023-05-10T17:02:55.042Z,68.00
2023-05-10T17:05:22.804Z,69.40
2023-05-10T17:07:50.552Z,69.20
2023-05-10T17:10:17.581Z,69.40
2023-05-10T17:12:44.508Z,69.60
2023-05-10T17:15:11.861Z,69.40
2023-05-10T17:17:38.976Z,69.70
2023-05-10T17:20:07.249Z,69.40
2023-05-10T17:22:34.308Z,69.70
2023-05-10T17:25:01.280Z,68.90
2023-05-10T17:27:30.177Z,69.20
2023-05-10T17:29:57.586Z,69.80
2023-05-10T17:32:24.742Z,69.20
2023-05-10T17:34:51.843Z,68.40
2023-05-10T17:37:19.344Z,68.90
2023-05-10T17:39:46.586Z,70.00
2023-05-10T17:42:14.896Z,69.70
2023-05-10T17:44:42.099Z,70.10
2023-05-10T17:47:09.017Z,70.60
2023-05-10T17:49:35.959Z,70.40
2023-05-10T17:52:03.455Z,70.70
2023-05-10T17:54:30.384Z,70.90
2023-05-10T17:56:58.151Z,70.70
2023-05-10T17:59:25.120Z,72.00
2023-05-10T18:01:52.041Z,71.80
2023-05-10T18:04:19.011Z,71.90
2023-05-10T18:06:46.048Z,72.30
2023-05-10T18:09:12.961Z,72.10
2023-05-10T18:11:40.120Z,72.60
2023-05-10T18:14:07.064Z,72.60
2023-05-10T18:16:34.009Z,72.90
2023-05-10T18:19:01.222Z,72.90
2023-05-10T18:21:28.198Z,73.00
2023-05-10T18:23:55.133Z,73.10
2023-05-10T18:26:22.440Z,73.10
2023-05-10T18:28:49.351Z,73.50
2023-05-10T18:31:16.791Z,73.70
2023-05-10T18:33:44.771Z,73.70
2023-05-10T18:36:11.849Z,73.70
2023-05-10T18:38:38.975Z,74.10
2023-05-10T18:41:06.593Z,73.90
2023-05-10T18:43:36.639Z,74.40
2023-05-10T18:46:03.554Z,74.60
2023-05-10T18:48:30.427Z,74.70
2023-05-10T18:50:57.392Z,75.10
2023-05-10T18:53:24.410Z,75.40
2023-05-10T18:55:58.721Z,75.80
2023-05-10T18:58:28.574Z,77.10
2023-05-10T19:00:55.964Z,78.20
2023-05-10T19:03:23.002Z,79.20
2023-05-10T19:05:50.138Z,79.50
2023-05-10T19:08:17.378Z,80.80
2023-05-10T19:10:45.813Z,82.00
2023-05-10T19:13:12.930Z,82.60
2023-05-10T19:15:39.807Z,83.20
2023-05-10T19:18:06.966Z,85.40
2023-05-10T19:20:33.978Z,87.40
2023-05-10T19:23:09.866Z,89.50
2023-05-10T19:25:37.532Z,91.20
2023-05-10T19:28:04.577Z,93.40
2023-05-10T19:30:32.433Z,95.20
2023-05-10T19:32:59.466Z,97.20
2023-05-10T19:35:26.482Z,99.20
2023-05-10T19:37:53.414Z,99.90
2023-05-10T19:40:20.427Z,99.90
2023-05-10T19:42:47.649Z,99.90
2023-05-10T19:45:15.776Z,99.90
2023-05-10T19:47:43.433Z,99.90
2023-05-10T19:50:12.309Z,99.90
2023-05-10T19:52:39.408Z,99.90
2023-05-10T19:55:07.194Z,99.90
2023-05-10T19:57:34.185Z,99.90
2023-05-10T20:00:01.096Z,99.90
2023-05-10T20:02:28.112Z,99.90
2023-05-10T20:04:55.027Z,99.90
2023-05-10T20:07:22.129Z,99.90
2023-05-10T20:09:49.646Z,99.90
2023-05-10T20:12:16.627Z,99.90
2023-05-10T20:14:43.546Z,99.90
2023-05-10T20:17:10.554Z,99.90
2023-05-10T20:19:37.600Z,99.90
2023-05-10T20:22:05.481Z,99.90
2023-05-10T20:24:32.459Z,99.90
2023-05-10T20:27:00.514Z,99.90
2023-05-10T20:29:27.406Z,99.90
2023-05-10T20:31:54.490Z,99.90
2023-05-10T20:34:21.526Z,99.90
2023-05-10T20:36:48.791Z,99.90
2023-05-10T20:39:15.761Z,99.90
2023-05-10T20:41:43.773Z,99.90
2023-05-10T20:44:10.673Z,99.90
2023-05-10T20:46:38.179Z,99.90
2023-05-10T20:49:05.646Z,99.90
2023-05-10T20:51:33.316Z,99.90
2023-05-10T20:54:02.564Z,99.90
2023-05-10T20:56:29.469Z,99.90
2023-05-10T20:58:56.531Z,99.90
2023-05-10T21:01:23.507Z,99.90
2023-05-10T21:03:50.787Z,99.90
2023-05-10T21:06:17.988Z,99.90
2023-05-10T21:08:44.897Z,99.90
2023-05-10T21:11:11.856Z,99.90
2023-05-10T21:13:38.786Z,99.90
2023-05-10T21:16:05.980Z,99.90
2023-05-10T21:18:32.971Z,99.90
2023-05-10T21:21:00.169Z,99.90
2023-05-10T21:23:27.104Z,99.90
2023-05-10T21:25:54.227Z,99.90
2023-05-10T21:28:21.156Z,99.90
2023-05-10T21:30:48.110Z,99.90
2023-05-10T21:33:15.027Z,99.90
2023-05-10T21:35:43.192Z,99.90
2023-05-10T21:38:10.469Z,99.90
2023-05-10T21:40:39.445Z,99.90
2023-05-10T21:43:06.526Z,99.90
2023-05-10T21:45:33.932Z,99.90
2023-05-10T21:48:00.975Z,99.90
2023-05-10T21:50:28.470Z,99.90
2023-05-10T21:52:56.292Z,99.90
2023-05-10T21:55:23.364Z,99.90
2023-05-10T21:57:50.735Z,99.90
2023-05-10T22:00:19.498Z,99.90
2023-05-10T22:02:47.012Z,99.90
2023-05-10T22:05:14.245Z,99.90
2023-05-10T22:07:41.961Z,99.90
2023-05-10T22:10:09.842Z,99.90
2023-05-10T22:12:36.884Z,99.90
2023-05-10T22:15:10.232Z,99.90
2023-05-10T22:17:39.804Z,99.90
2023-05-10T22:20:08.489Z,99.90
2023-05-10T22:22:36.558Z,99.90
2023-05-10T22:25:04.293Z,99.90
2023-05-10T22:27:31.307Z,99.90
2023-05-10T22:29:58.298Z,99.90
2023-05-10T22:32:25.691Z,99.90
2023-05-10T22:34:52.796Z,99.90
2023-05-10T22:37:19.870Z,99.90
2023-05-10T22:39:47.021Z,99.90
2023-05-10T22:42:14.077Z,99.90
2023-05-10T22:44:40.976Z,99.90
2023-05-10T22:47:09.036Z,99.90
2023-05-10T22:49:36.152Z,99.90
2023-05-10T22:52:03.151Z,99.90
2023-05-10T22:54:30.059Z,99.90
2023-05-10T22:56:57.125Z,99.90
2023-05-10T22:59:24.047Z,99.90
2023-05-10T23:01:51.134Z,99.90
2023-05-10T23:04:18.189Z,99.90
2023-05-10T23:06:45.949Z,99.90
2023-05-10T23:09:12.886Z,99.90
2023-05-10T23:11:39.832Z,99.90
2023-05-10T23:14:06.771Z,99.90
2023-05-10T23:16:34.000Z,99.90
2023-05-10T23:19:01.037Z,99.90
2023-05-10T23:21:29.969Z,99.90
2023-05-10T23:23:59.041Z,99.90
2023-05-10T23:26:26.081Z,99.90
2023-05-10T23:28:52.993Z,99.90
2023-05-10T23:31:20.017Z,99.90
2023-05-10T23:33:46.935Z,99.90
2023-05-10T23:36:14.148Z,99.90
2023-05-10T23:38:41.185Z,99.90
2023-05-10T23:41:08.109Z,99.90
2023-05-10T23:43:35.034Z,99.90
2023-05-10T23:46:02.220Z,99.90
2023-05-10T23:48:29.182Z,99.90
2023-05-10T23:50:56.263Z,99.90
2023-05-10T23:53:23.260Z,99.90
2023-05-10T23:55:50.170Z,99.90
2023-05-10T23:58:17.088Z,99.90
